sensor_id;sensor_type;location;lat;lon;timestamp;temperature;humidity
44305;DHT22;30019;50.576;8.568;2023-03-19T00:01:12;8.70;99.90
44305;DHT22;30019;50.576;8.568;2023-03-19T00:03:38;8.80;99.90
44305;DHT22;30019;50.576;8.568;2023-03-19T00:06:04;8.70;99.90
44305;DHT22;30019;50.576;8.568;2023-03-19T00:08:29;8.60;99.90
44305;DHT22;30019;50.576;8.568;2023-03-19T00:10:55;8.50;99.90
44305;DHT22;30019;50.576;8.568;2023-03-19T00:13:21;8.60;99.90
44305;DHT22;30019;50.576;8.568;2023-03-19T00:15:46;8.60;99.90
44305;DHT22;30019;50.576;8.568;2023-03-19T00:18:12;8.50;99.90
44305;DHT22;30019;50.576;8.568;2023-03-19T00:20:38;8.50;99.90
44305;DHT22;30019;50.576;8.568;2023-03-19T00:23:04;8.50;99.90
44305;DHT22;30019;50.576;8.568;2023-03-19T00:25:31;8.50;99.90
44305;DHT22;30019;50.576;8.568;2023-03-19T00:27:56;8.40;99.90
44305;DHT22;30019;50.576;8.568;2023-03-19T00:30:28;8.40;99.90
44305;DHT22;30019;50.576;8.568;2023-03-19T00:33:05;8.40;99.90
44305;DHT22;30019;50.576;8.568;2023-03-19T00:35:31;8.40;99.90
44305;DHT22;30019;50.576;8.568;2023-03-19T00:37:57;8.50;99.90
44305;DHT22;30019;50.576;8.568;2023-03-19T00:40:23;8.40;99.90
44305;DHT22;30019;50.576;8.568;2023-03-19T00:42:48;8.50;99.90
44305;DHT22;30019;50.576;8.568;2023-03-19T00:45:14;8.50;99.90
44305;DHT22;30019;50.576;8.568;2023-03-19T00:47:39;8.40;99.90
44305;DHT22;30019;50.576;8.568;2023-03-19T00:50:06;8.50;99.90
44305;DHT22;30019;50.576;8.568;2023-03-19T00:52:32;8.50;99.90
44305;DHT22;30019;50.576;8.568;2023-03-19T00:54:58;8.50;99.90
44305;DHT22;30019;50.576;8.568;2023-03-19T00:57:23;8.40;99.90
44305;DHT22;30019;50.576;8.568;2023-03-19T00:59:49;8.40;99.90
44305;DHT22;30019;50.576;8.568;2023-03-19T01:02:15;8.40;99.90
44305;DHT22;30019;50.576;8.568;2023-03-19T01:04:41;8.30;99.90
44305;DHT22;30019;50.576;8.568;2023-03-19T01:07:07;8.40;99.90
44305;DHT22;30019;50.576;8.568;2023-03-19T01:09:33;8.40;99.90
44305;DHT22;30019;50.576;8.568;2023-03-19T01:12:00;8.30;99.90
44305;DHT22;30019;50.576;8.568;2023-03-19T01:14:29;8.30;99.90
44305;DHT22;30019;50.576;8.568;2023-03-19T01:16:55;8.30;99.90
44305;DHT22;30019;50.576;8.568;2023-03-19T01:19:21;8.30;99.90
44305;DHT22;30019;50.576;8.568;2023-03-19T01:21:47;8.30;99.90
44305;DHT22;30019;50.576;8.568;2023-03-19T01:24:14;8.20;99.90
44305;DHT22;30019;50.576;8.568;2023-03-19T01:26:48;8.20;99.90
44305;DHT22;30019;50.576;8.568;2023-03-19T01:29:14;8.30;99.90
44305;DHT22;30019;50.576;8.568;2023-03-19T01:31:42;8.20;99.90
44305;DHT22;30019;50.576;8.568;2023-03-19T01:48:05;8.20;99.90
44305;DHT22;30019;50.576;8.568;2023-03-19T01:52:59;8.10;99.90
44305;DHT22;30019;50.576;8.568;2023-03-19T01:55:25;8.10;99.90
44305;DHT22;30019;50.576;8.568;2023-03-19T01:57:52;8.10;99.90
44305;DHT22;30019;50.576;8.568;2023-03-19T02:00:17;8.10;99.90
44305;DHT22;30019;50.576;8.568;2023-03-19T02:02:46;8.10;99.90
44305;DHT22;30019;50.576;8.568;2023-03-19T02:05:14;8.10;99.90
44305;DHT22;30019;50.576;8.568;2023-03-19T02:07:43;8.10;99.90
44305;DHT22;30019;50.576;8.568;2023-03-19T02:10:13;8.10;99.90
44305;DHT22;30019;50.576;8.568;2023-03-19T02:12:41;8.00;99.90
44305;DHT22;30019;50.576;8.568;2023-03-19T02:15:06;8.00;99.90
44305;DHT22;30019;50.576;8.568;2023-03-19T02:17:33;8.00;99.90
44305;DHT22;30019;50.576;8.568;2023-03-19T02:23:14;8.00;99.90
44305;DHT22;30019;50.576;8.568;2023-03-19T02:28:12;8.00;99.90
44305;DHT22;30019;50.576;8.568;2023-03-19T02:30:42;8.00;99.90
44305;DHT22;30019;50.576;8.568;2023-03-19T02:33:16;8.00;99.90
44305;DHT22;30019;50.576;8.568;2023-03-19T02:35:44;8.00;99.90
44305;DHT22;30019;50.576;8.568;2023-03-19T02:38:11;7.90;99.90
44305;DHT22;30019;50.576;8.568;2023-03-19T02:40:42;7.90;99.90
44305;DHT22;30019;50.576;8.568;2023-03-19T02:43:09;7.90;99.90
44305;DHT22;30019;50.576;8.568;2023-03-19T02:45:35;7.90;99.90
44305;DHT22;30019;50.576;8.568;2023-03-19T02:48:00;7.90;99.90
44305;DHT22;30019;50.576;8.568;2023-03-19T02:50:27;7.80;99.90
44305;DHT22;30019;50.576;8.568;2023-03-19T02:52:52;7.80;99.90
44305;DHT22;30019;50.576;8.568;2023-03-19T02:55:18;7.80;99.90
44305;DHT22;30019;50.576;8.568;2023-03-19T02:57:44;7.80;99.90
44305;DHT22;30019;50.576;8.568;2023-03-19T03:00:10;7.80;99.90
44305;DHT22;30019;50.576;8.568;2023-03-19T03:02:36;7.80;99.90
44305;DHT22;30019;50.576;8.568;2023-03-19T03:05:03;7.70;99.90
44305;DHT22;30019;50.576;8.568;2023-03-19T03:07:28;7.70;99.90
44305;DHT22;30019;50.576;8.568;2023-03-19T03:09:54;7.70;99.90
44305;DHT22;30019;50.576;8.568;2023-03-19T03:12:20;7.70;99.90
44305;DHT22;30019;50.576;8.568;2023-03-19T03:14:45;7.70;99.90
44305;DHT22;30019;50.576;8.568;2023-03-19T03:17:11;7.70;99.90
44305;DHT22;30019;50.576;8.568;2023-03-19T03:19:36;7.70;99.90
44305;DHT22;30019;50.576;8.568;2023-03-19T03:22:02;7.70;99.90
44305;DHT22;30019;50.576;8.568;2023-03-19T03:24:27;7.70;99.90
44305;DHT22;30019;50.576;8.568;2023-03-19T03:26:53;7.70;99.90
44305;DHT22;30019;50.576;8.568;2023-03-19T03:29:19;7.70;99.90
44305;DHT22;30019;50.576;8.568;2023-03-19T03:31:44;7.70;99.90
44305;DHT22;30019;50.576;8.568;2023-03-19T03:34:10;7.60;99.90
44305;DHT22;30019;50.576;8.568;2023-03-19T03:36:36;7.60;99.90
44305;DHT22;30019;50.576;8.568;2023-03-19T03:39:02;7.60;99.90
44305;DHT22;30019;50.576;8.568;2023-03-19T03:41:28;7.60;99.90
44305;DHT22;30019;50.576;8.568;2023-03-19T03:43:54;7.70;99.90
44305;DHT22;30019;50.576;8.568;2023-03-19T03:46:20;7.70;99.90
44305;DHT22;30019;50.576;8.568;2023-03-19T03:48:45;7.60;99.90
44305;DHT22;30019;50.576;8.568;2023-03-19T03:51:13;7.60;99.90
44305;DHT22;30019;50.576;8.568;2023-03-19T03:53:39;7.60;99.90
44305;DHT22;30019;50.576;8.568;2023-03-19T03:56:05;7.60;99.90
44305;DHT22;30019;50.576;8.568;2023-03-19T03:58:31;7.60;99.90
44305;DHT22;30019;50.576;8.568;2023-03-19T04:00:57;7.60;99.90
44305;DHT22;30019;50.576;8.568;2023-03-19T04:03:23;7.60;99.90
44305;DHT22;30019;50.576;8.568;2023-03-19T04:05:49;7.60;99.90
44305;DHT22;30019;50.576;8.568;2023-03-19T04:08:15;7.50;99.90
44305;DHT22;30019;50.576;8.568;2023-03-19T04:10:41;7.50;99.90
44305;DHT22;30019;50.576;8.568;2023-03-19T04:13:11;7.40;99.90
44305;DHT22;30019;50.576;8.568;2023-03-19T04:15:37;7.40;99.90
44305;DHT22;30019;50.576;8.568;2023-03-19T04:18:04;7.30;99.90
44305;DHT22;30019;50.576;8.568;2023-03-19T04:20:29;7.30;99.90
44305;DHT22;30019;50.576;8.568;2023-03-19T04:22:55;7.20;99.90
44305;DHT22;30019;50.576;8.568;2023-03-19T04:25:21;7.10;99.90
44305;DHT22;30019;50.576;8.568;2023-03-19T04:27:46;7.00;99.90
44305;DHT22;30019;50.576;8.568;2023-03-19T04:30:12;7.00;99.90
44305;DHT22;30019;50.576;8.568;2023-03-19T04:32:40;7.00;99.90
44305;DHT22;30019;50.576;8.568;2023-03-19T04:35:06;7.00;99.90
44305;DHT22;30019;50.576;8.568;2023-03-19T04:37:32;7.00;99.90
44305;DHT22;30019;50.576;8.568;2023-03-19T04:39:58;7.10;99.90
44305;DHT22;30019;50.576;8.568;2023-03-19T04:42:23;7.10;99.90
44305;DHT22;30019;50.576;8.568;2023-03-19T04:44:50;7.10;99.90
44305;DHT22;30019;50.576;8.568;2023-03-19T04:47:17;7.20;99.90
44305;DHT22;30019;50.576;8.568;2023-03-19T04:49:43;7.10;99.90
44305;DHT22;30019;50.576;8.568;2023-03-19T04:52:08;7.10;99.90
44305;DHT22;30019;50.576;8.568;2023-03-19T04:54:34;7.10;99.90
44305;DHT22;30019;50.576;8.568;2023-03-19T04:56:59;7.10;99.90
44305;DHT22;30019;50.576;8.568;2023-03-19T04:59:25;7.10;99.90
44305;DHT22;30019;50.576;8.568;2023-03-19T05:01:51;7.10;99.90
44305;DHT22;30019;50.576;8.568;2023-03-19T05:04:17;7.10;99.90
44305;DHT22;30019;50.576;8.568;2023-03-19T05:06:43;7.20;99.90
44305;DHT22;30019;50.576;8.568;2023-03-19T05:09:08;7.10;99.90
44305;DHT22;30019;50.576;8.568;2023-03-19T05:11:34;7.20;99.90
44305;DHT22;30019;50.576;8.568;2023-03-19T05:14:00;7.20;99.90
44305;DHT22;30019;50.576;8.568;2023-03-19T05:16:25;7.20;99.90
44305;DHT22;30019;50.576;8.568;2023-03-19T05:18:52;7.20;99.90
44305;DHT22;30019;50.576;8.568;2023-03-19T05:21:19;7.30;99.90
44305;DHT22;30019;50.576;8.568;2023-03-19T05:23:45;7.30;99.90
44305;DHT22;30019;50.576;8.568;2023-03-19T05:26:11;7.20;99.90
44305;DHT22;30019;50.576;8.568;2023-03-19T05:28:37;7.20;99.90
44305;DHT22;30019;50.576;8.568;2023-03-19T05:31:03;7.20;99.90
44305;DHT22;30019;50.576;8.568;2023-03-19T05:33:29;7.10;99.90
44305;DHT22;30019;50.576;8.568;2023-03-19T05:35:55;7.10;99.90
44305;DHT22;30019;50.576;8.568;2023-03-19T05:38:20;7.10;99.90
44305;DHT22;30019;50.576;8.568;2023-03-19T05:40:46;7.10;99.90
44305;DHT22;30019;50.576;8.568;2023-03-19T05:43:12;7.00;99.90
44305;DHT22;30019;50.576;8.568;2023-03-19T05:45:37;6.90;99.90
44305;DHT22;30019;50.576;8.568;2023-03-19T05:48:04;6.70;99.90
44305;DHT22;30019;50.576;8.568;2023-03-19T05:50:30;6.70;99.90
44305;DHT22;30019;50.576;8.568;2023-03-19T05:52:57;6.70;99.90
44305;DHT22;30019;50.576;8.568;2023-03-19T05:55:23;6.70;99.90
44305;DHT22;30019;50.576;8.568;2023-03-19T05:57:49;6.80;99.90
44305;DHT22;30019;50.576;8.568;2023-03-19T06:00:15;6.70;99.90
44305;DHT22;30019;50.576;8.568;2023-03-19T06:02:41;6.70;99.90
44305;DHT22;30019;50.576;8.568;2023-03-19T06:05:08;6.70;99.90
44305;DHT22;30019;50.576;8.568;2023-03-19T06:07:34;6.70;99.90
44305;DHT22;30019;50.576;8.568;2023-03-19T06:10:10;6.70;99.90
44305;DHT22;30019;50.576;8.568;2023-03-19T06:12:38;6.70;99.90
44305;DHT22;30019;50.576;8.568;2023-03-19T06:15:05;6.80;99.90
44305;DHT22;30019;50.576;8.568;2023-03-19T06:17:31;6.80;99.90
44305;DHT22;30019;50.576;8.568;2023-03-19T06:19:56;6.80;99.90
44305;DHT22;30019;50.576;8.568;2023-03-19T06:22:22;6.80;99.90
44305;DHT22;30019;50.576;8.568;2023-03-19T06:24:47;6.90;99.90
44305;DHT22;30019;50.576;8.568;2023-03-19T06:27:13;6.80;99.90
44305;DHT22;30019;50.576;8.568;2023-03-19T06:29:42;6.80;99.90
44305;DHT22;30019;50.576;8.568;2023-03-19T06:32:14;6.70;99.90
44305;DHT22;30019;50.576;8.568;2023-03-19T06:34:42;6.70;99.90
44305;DHT22;30019;50.576;8.568;2023-03-19T06:37:19;6.70;99.90
44305;DHT22;30019;50.576;8.568;2023-03-19T06:39:51;6.80;99.90
44305;DHT22;30019;50.576;8.568;2023-03-19T06:42:19;6.90;99.90
44305;DHT22;30019;50.576;8.568;2023-03-19T06:44:48;7.10;99.90
44305;DHT22;30019;50.576;8.568;2023-03-19T06:47:17;7.10;99.90
44305;DHT22;30019;50.576;8.568;2023-03-19T06:49:46;7.10;99.90
44305;DHT22;30019;50.576;8.568;2023-03-19T06:52:12;7.20;99.90
44305;DHT22;30019;50.576;8.568;2023-03-19T06:54:38;7.40;99.90
44305;DHT22;30019;50.576;8.568;2023-03-19T06:57:06;7.50;99.90
44305;DHT22;30019;50.576;8.568;2023-03-19T06:59:32;7.60;99.90
44305;DHT22;30019;50.576;8.568;2023-03-19T07:02:33;7.80;99.90
44305;DHT22;30019;50.576;8.568;2023-03-19T07:05:01;7.90;99.90
44305;DHT22;30019;50.576;8.568;2023-03-19T07:07:30;7.90;99.90
44305;DHT22;30019;50.576;8.568;2023-03-19T07:10:07;8.00;99.90
44305;DHT22;30019;50.576;8.568;2023-03-19T07:12:45;7.90;99.90
44305;DHT22;30019;50.576;8.568;2023-03-19T07:15:37;7.80;99.90
44305;DHT22;30019;50.576;8.568;2023-03-19T07:18:03;7.90;99.90
44305;DHT22;30019;50.576;8.568;2023-03-19T07:20:28;7.90;99.90
44305;DHT22;30019;50.576;8.568;2023-03-19T07:22:54;7.90;99.90
44305;DHT22;30019;50.576;8.568;2023-03-19T07:25:20;8.00;99.90
44305;DHT22;30019;50.576;8.568;2023-03-19T07:27:46;8.10;99.90
44305;DHT22;30019;50.576;8.568;2023-03-19T07:30:12;8.10;99.90
44305;DHT22;30019;50.576;8.568;2023-03-19T07:32:38;8.30;99.90
44305;DHT22;30019;50.576;8.568;2023-03-19T07:35:07;8.30;99.90
44305;DHT22;30019;50.576;8.568;2023-03-19T07:37:33;8.50;99.90
44305;DHT22;30019;50.576;8.568;2023-03-19T07:39:59;8.60;99.90
44305;DHT22;30019;50.576;8.568;2023-03-19T07:42:24;8.50;99.90
44305;DHT22;30019;50.576;8.568;2023-03-19T07:44:50;8.60;99.90
44305;DHT22;30019;50.576;8.568;2023-03-19T07:47:16;8.70;99.90
44305;DHT22;30019;50.576;8.568;2023-03-19T07:49:41;8.80;99.90
44305;DHT22;30019;50.576;8.568;2023-03-19T07:52:07;8.90;99.90
44305;DHT22;30019;50.576;8.568;2023-03-19T07:54:33;8.80;99.90
44305;DHT22;30019;50.576;8.568;2023-03-19T07:56:58;8.80;99.90
44305;DHT22;30019;50.576;8.568;2023-03-19T07:59:24;8.80;99.90
44305;DHT22;30019;50.576;8.568;2023-03-19T08:01:50;8.80;99.90
44305;DHT22;30019;50.576;8.568;2023-03-19T08:04:16;8.90;99.90
44305;DHT22;30019;50.576;8.568;2023-03-19T08:06:41;9.10;99.90
44305;DHT22;30019;50.576;8.568;2023-03-19T08:09:07;9.30;99.90
44305;DHT22;30019;50.576;8.568;2023-03-19T08:11:34;9.40;99.90
44305;DHT22;30019;50.576;8.568;2023-03-19T08:13:59;9.70;99.90
44305;DHT22;30019;50.576;8.568;2023-03-19T08:16:25;9.90;99.90
44305;DHT22;30019;50.576;8.568;2023-03-19T08:18:51;10.20;99.90
44305;DHT22;30019;50.576;8.568;2023-03-19T08:21:17;10.30;99.90
44305;DHT22;30019;50.576;8.568;2023-03-19T08:23:42;10.50;99.90
44305;DHT22;30019;50.576;8.568;2023-03-19T08:26:08;10.50;99.90
44305;DHT22;30019;50.576;8.568;2023-03-19T08:28:33;10.80;99.90
44305;DHT22;30019;50.576;8.568;2023-03-19T08:31:06;11.10;99.90
44305;DHT22;30019;50.576;8.568;2023-03-19T08:33:32;11.00;99.90
44305;DHT22;30019;50.576;8.568;2023-03-19T08:36:08;11.10;99.90
44305;DHT22;30019;50.576;8.568;2023-03-19T08:38:35;11.10;99.90
44305;DHT22;30019;50.576;8.568;2023-03-19T08:41:00;11.20;99.90
44305;DHT22;30019;50.576;8.568;2023-03-19T08:43:32;11.20;99.90
44305;DHT22;30019;50.576;8.568;2023-03-19T08:45:59;11.20;99.90
44305;DHT22;30019;50.576;8.568;2023-03-19T08:48:25;11.10;99.90
44305;DHT22;30019;50.576;8.568;2023-03-19T08:50:55;11.20;99.90
44305;DHT22;30019;50.576;8.568;2023-03-19T08:53:22;11.20;99.90
44305;DHT22;30019;50.576;8.568;2023-03-19T08:55:57;11.30;99.90
44305;DHT22;30019;50.576;8.568;2023-03-19T08:58:23;11.20;99.90
44305;DHT22;30019;50.576;8.568;2023-03-19T09:00:49;11.40;99.90
44305;DHT22;30019;50.576;8.568;2023-03-19T09:03:16;11.50;99.90
44305;DHT22;30019;50.576;8.568;2023-03-19T09:05:42;11.50;99.90
44305;DHT22;30019;50.576;8.568;2023-03-19T09:08:08;11.40;99.90
44305;DHT22;30019;50.576;8.568;2023-03-19T09:10:34;11.50;99.90
44305;DHT22;30019;50.576;8.568;2023-03-19T09:13:02;11.50;99.90
44305;DHT22;30019;50.576;8.568;2023-03-19T09:15:28;11.50;99.90
44305;DHT22;30019;50.576;8.568;2023-03-19T09:17:54;11.70;99.90
44305;DHT22;30019;50.576;8.568;2023-03-19T09:20:46;11.80;99.90
44305;DHT22;30019;50.576;8.568;2023-03-19T09:23:14;11.90;99.90
44305;DHT22;30019;50.576;8.568;2023-03-19T09:25:40;12.00;99.90
44305;DHT22;30019;50.576;8.568;2023-03-19T09:28:09;12.20;99.90
44305;DHT22;30019;50.576;8.568;2023-03-19T09:30:37;12.30;99.90
44305;DHT22;30019;50.576;8.568;2023-03-19T09:33:33;12.60;99.90
44305;DHT22;30019;50.576;8.568;2023-03-19T09:36:11;12.70;99.90
44305;DHT22;30019;50.576;8.568;2023-03-19T09:38:42;12.90;99.90
44305;DHT22;30019;50.576;8.568;2023-03-19T09:41:14;13.10;99.90
44305;DHT22;30019;50.576;8.568;2023-03-19T09:44:27;13.20;99.90
44305;DHT22;30019;50.576;8.568;2023-03-19T09:47:09;13.10;99.90
44305;DHT22;30019;50.576;8.568;2023-03-19T09:49:41;12.90;99.90
44305;DHT22;30019;50.576;8.568;2023-03-19T09:57:50;12.40;99.90
44305;DHT22;30019;50.576;8.568;2023-03-19T10:00:23;12.30;99.90
44305;DHT22;30019;50.576;8.568;2023-03-19T10:02:57;12.30;99.90
44305;DHT22;30019;50.576;8.568;2023-03-19T10:05:37;12.40;99.90
44305;DHT22;30019;50.576;8.568;2023-03-19T10:08:23;12.50;99.90
44305;DHT22;30019;50.576;8.568;2023-03-19T10:11:02;12.50;99.90
44305;DHT22;30019;50.576;8.568;2023-03-19T10:13:52;12.60;99.90
44305;DHT22;30019;50.576;8.568;2023-03-19T10:16:24;12.80;99.90
44305;DHT22;30019;50.576;8.568;2023-03-19T10:18:53;12.70;99.90
44305;DHT22;30019;50.576;8.568;2023-03-19T10:21:33;12.70;99.90
44305;DHT22;30019;50.576;8.568;2023-03-19T10:24:14;12.80;99.90
44305;DHT22;30019;50.576;8.568;2023-03-19T10:26:44;12.80;99.90
44305;DHT22;30019;50.576;8.568;2023-03-19T10:29:21;12.90;99.90
44305;DHT22;30019;50.576;8.568;2023-03-19T10:34:37;13.90;99.90
44305;DHT22;30019;50.576;8.568;2023-03-19T10:40:18;15.20;99.90
44305;DHT22;30019;50.576;8.568;2023-03-19T10:46:21;15.80;99.90
44305;DHT22;30019;50.576;8.568;2023-03-19T10:48:47;15.90;99.90
44305;DHT22;30019;50.576;8.568;2023-03-19T10:51:27;16.10;99.90
44305;DHT22;30019;50.576;8.568;2023-03-19T10:53:53;16.00;99.90
44305;DHT22;30019;50.576;8.568;2023-03-19T10:56:24;15.50;99.90
44305;DHT22;30019;50.576;8.568;2023-03-19T10:59:04;15.30;99.90
44305;DHT22;30019;50.576;8.568;2023-03-19T11:01:39;14.70;99.90
44305;DHT22;30019;50.576;8.568;2023-03-19T11:06:39;14.10;99.90
44305;DHT22;30019;50.576;8.568;2023-03-19T11:09:16;13.70;99.90
44305;DHT22;30019;50.576;8.568;2023-03-19T11:11:48;13.30;99.90
44305;DHT22;30019;50.576;8.568;2023-03-19T11:14:37;13.20;99.90
44305;DHT22;30019;50.576;8.568;2023-03-19T11:17:19;12.70;99.90
44305;DHT22;30019;50.576;8.568;2023-03-19T11:19:52;12.50;99.90
44305;DHT22;30019;50.576;8.568;2023-03-19T11:26:06;12.60;99.90
44305;DHT22;30019;50.576;8.568;2023-03-19T12:40:55;13.40;99.90
44305;DHT22;30019;50.576;8.568;2023-03-19T12:44:18;13.30;99.90
44305;DHT22;30019;50.576;8.568;2023-03-19T12:46:31;13.30;99.90
44305;DHT22;30019;50.576;8.568;2023-03-19T12:49:15;13.40;99.90
44305;DHT22;30019;50.576;8.568;2023-03-19T12:51:46;13.50;99.90
44305;DHT22;30019;50.576;8.568;2023-03-19T12:54:26;13.60;99.90
44305;DHT22;30019;50.576;8.568;2023-03-19T12:57:09;13.60;99.90
44305;DHT22;30019;50.576;8.568;2023-03-19T12:59:44;13.60;99.90
44305;DHT22;30019;50.576;8.568;2023-03-19T13:04:56;13.50;99.90
44305;DHT22;30019;50.576;8.568;2023-03-19T13:07:31;13.50;99.90
44305;DHT22;30019;50.576;8.568;2023-03-19T13:10:08;13.40;99.90
44305;DHT22;30019;50.576;8.568;2023-03-19T13:12:36;13.30;99.90
44305;DHT22;30019;50.576;8.568;2023-03-19T13:18:27;12.90;99.90
44305;DHT22;30019;50.576;8.568;2023-03-19T13:28:09;11.70;99.90
44305;DHT22;30019;50.576;8.568;2023-03-19T13:35:47;11.60;99.90
44305;DHT22;30019;50.576;8.568;2023-03-19T13:49:08;12.50;99.90
44305;DHT22;30019;50.576;8.568;2023-03-19T14:03:58;13.30;99.90
44305;DHT22;30019;50.576;8.568;2023-03-19T14:23:52;13.50;99.90
44305;DHT22;30019;50.576;8.568;2023-03-19T14:55:50;14.10;99.90
44305;DHT22;30019;50.576;8.568;2023-03-19T14:59:07;14.10;99.90
44305;DHT22;30019;50.576;8.568;2023-03-19T15:19:36;14.70;99.90
44305;DHT22;30019;50.576;8.568;2023-03-19T15:26:02;14.10;99.90
44305;DHT22;30019;50.576;8.568;2023-03-19T15:35:17;13.70;99.90
44305;DHT22;30019;50.576;8.568;2023-03-19T15:40:38;13.30;99.90
44305;DHT22;30019;50.576;8.568;2023-03-19T15:43:40;13.20;99.90
44305;DHT22;30019;50.576;8.568;2023-03-19T15:46:11;13.20;99.90
44305;DHT22;30019;50.576;8.568;2023-03-19T15:48:49;13.30;99.90
44305;DHT22;30019;50.576;8.568;2023-03-19T15:51:19;13.20;99.90
44305;DHT22;30019;50.576;8.568;2023-03-19T15:57:27;13.00;99.90
44305;DHT22;30019;50.576;8.568;2023-03-19T16:00:44;12.90;99.90
44305;DHT22;30019;50.576;8.568;2023-03-19T16:03:42;13.00;99.90
44305;DHT22;30019;50.576;8.568;2023-03-19T16:06:31;12.90;99.90
44305;DHT22;30019;50.576;8.568;2023-03-19T16:09:21;12.90;99.90
44305;DHT22;30019;50.576;8.568;2023-03-19T16:11:51;12.90;99.90
44305;DHT22;30019;50.576;8.568;2023-03-19T16:14:40;12.90;99.90
44305;DHT22;30019;50.576;8.568;2023-03-19T16:24:35;12.80;99.90
44305;DHT22;30019;50.576;8.568;2023-03-19T16:27:13;12.80;99.90
44305;DHT22;30019;50.576;8.568;2023-03-19T16:33:19;12.80;99.90
44305;DHT22;30019;50.576;8.568;2023-03-19T16:46:37;12.70;99.90
44305;DHT22;30019;50.576;8.568;2023-03-19T16:53:31;12.60;99.90
44305;DHT22;30019;50.576;8.568;2023-03-19T17:17:31;12.10;99.90
44305;DHT22;30019;50.576;8.568;2023-03-19T17:19:59;11.80;99.90
44305;DHT22;30019;50.576;8.568;2023-03-19T17:22:51;11.70;99.90
44305;DHT22;30019;50.576;8.568;2023-03-19T17:25:17;11.70;99.90
44305;DHT22;30019;50.576;8.568;2023-03-19T17:27:49;11.50;99.90
44305;DHT22;30019;50.576;8.568;2023-03-19T17:30:14;11.40;99.90
44305;DHT22;30019;50.576;8.568;2023-03-19T17:33:14;11.40;99.90
44305;DHT22;30019;50.576;8.568;2023-03-19T17:36:00;11.30;99.90
44305;DHT22;30019;50.576;8.568;2023-03-19T17:38:36;11.20;99.90
44305;DHT22;30019;50.576;8.568;2023-03-19T17:41:16;11.00;99.90
44305;DHT22;30019;50.576;8.568;2023-03-19T17:43:43;11.00;99.90
44305;DHT22;30019;50.576;8.568;2023-03-19T17:46:19;11.00;99.90
44305;DHT22;30019;50.576;8.568;2023-03-19T17:48:46;10.90;99.90
44305;DHT22;30019;50.576;8.568;2023-03-19T17:51:23;10.80;99.90
44305;DHT22;30019;50.576;8.568;2023-03-19T17:53:51;10.80;99.90
44305;DHT22;30019;50.576;8.568;2023-03-19T17:56:19;10.60;99.90
44305;DHT22;30019;50.576;8.568;2023-03-19T17:58:45;10.50;99.90
44305;DHT22;30019;50.576;8.568;2023-03-19T18:01:16;10.40;99.90
44305;DHT22;30019;50.576;8.568;2023-03-19T18:03:43;10.20;99.90
44305;DHT22;30019;50.576;8.568;2023-03-19T18:06:17;10.10;99.90
44305;DHT22;30019;50.576;8.568;2023-03-19T18:08:44;10.00;99.90
44305;DHT22;30019;50.576;8.568;2023-03-19T18:11:20;9.90;99.90
44305;DHT22;30019;50.576;8.568;2023-03-19T18:13:45;9.80;99.90
44305;DHT22;30019;50.576;8.568;2023-03-19T18:16:29;9.70;99.90
44305;DHT22;30019;50.576;8.568;2023-03-19T18:21:41;9.60;99.90
44305;DHT22;30019;50.576;8.568;2023-03-19T18:24:35;9.60;99.90
44305;DHT22;30019;50.576;8.568;2023-03-19T18:27:27;9.60;99.90
44305;DHT22;30019;50.576;8.568;2023-03-19T18:29:53;9.60;99.90
44305;DHT22;30019;50.576;8.568;2023-03-19T18:32:26;9.60;99.90
44305;DHT22;30019;50.576;8.568;2023-03-19T18:34:53;9.50;99.90
44305;DHT22;30019;50.576;8.568;2023-03-19T18:37:19;9.50;99.90
44305;DHT22;30019;50.576;8.568;2023-03-19T18:39:45;9.50;99.90
44305;DHT22;30019;50.576;8.568;2023-03-19T18:42:11;9.50;99.90
44305;DHT22;30019;50.576;8.568;2023-03-19T18:44:37;9.40;99.90
44305;DHT22;30019;50.576;8.568;2023-03-19T18:47:03;9.30;99.90
44305;DHT22;30019;50.576;8.568;2023-03-19T18:49:29;9.20;99.90
44305;DHT22;30019;50.576;8.568;2023-03-19T18:51:54;9.20;99.90
44305;DHT22;30019;50.576;8.568;2023-03-19T18:54:20;9.20;99.90
44305;DHT22;30019;50.576;8.568;2023-03-19T18:57:09;9.20;99.90
44305;DHT22;30019;50.576;8.568;2023-03-19T18:59:44;9.10;99.90
44305;DHT22;30019;50.576;8.568;2023-03-19T19:06:29;9.20;99.90
44305;DHT22;30019;50.576;8.568;2023-03-19T19:08:59;9.20;99.90
44305;DHT22;30019;50.576;8.568;2023-03-19T19:38:33;9.50;99.90
44305;DHT22;30019;50.576;8.568;2023-03-19T19:48:20;9.40;99.90
44305;DHT22;30019;50.576;8.568;2023-03-19T19:54:27;9.50;99.90
44305;DHT22;30019;50.576;8.568;2023-03-19T19:56:53;9.40;99.90
44305;DHT22;30019;50.576;8.568;2023-03-19T19:59:20;9.40;99.90
44305;DHT22;30019;50.576;8.568;2023-03-19T20:01:47;9.40;99.90
44305;DHT22;30019;50.576;8.568;2023-03-19T20:04:13;9.30;99.90
44305;DHT22;30019;50.576;8.568;2023-03-19T20:06:39;9.20;99.90
44305;DHT22;30019;50.576;8.568;2023-03-19T20:09:04;9.20;99.90
44305;DHT22;30019;50.576;8.568;2023-03-19T20:11:30;9.20;99.90
44305;DHT22;30019;50.576;8.568;2023-03-19T20:13:56;9.20;99.90
44305;DHT22;30019;50.576;8.568;2023-03-19T20:16:24;9.20;99.90
44305;DHT22;30019;50.576;8.568;2023-03-19T20:18:50;9.10;99.90
44305;DHT22;30019;50.576;8.568;2023-03-19T20:21:18;9.10;99.90
44305;DHT22;30019;50.576;8.568;2023-03-19T20:23:44;9.10;99.90
44305;DHT22;30019;50.576;8.568;2023-03-19T20:26:18;9.20;99.90
44305;DHT22;30019;50.576;8.568;2023-03-19T20:28:44;9.20;99.90
44305;DHT22;30019;50.576;8.568;2023-03-19T20:35:03;9.10;99.90
44305;DHT22;30019;50.576;8.568;2023-03-19T20:38:06;9.10;99.90
44305;DHT22;30019;50.576;8.568;2023-03-19T20:40:38;9.20;99.90
44305;DHT22;30019;50.576;8.568;2023-03-19T20:43:05;9.10;99.90
44305;DHT22;30019;50.576;8.568;2023-03-19T20:45:36;9.10;99.90
44305;DHT22;30019;50.576;8.568;2023-03-19T20:48:03;9.10;99.90
44305;DHT22;30019;50.576;8.568;2023-03-19T20:50:34;9.10;99.90
44305;DHT22;30019;50.576;8.568;2023-03-19T20:53:06;9.10;99.90
44305;DHT22;30019;50.576;8.568;2023-03-19T20:55:42;9.10;99.90
44305;DHT22;30019;50.576;8.568;2023-03-19T20:58:30;9.10;99.90
44305;DHT22;30019;50.576;8.568;2023-03-19T21:00:58;9.10;99.90
44305;DHT22;30019;50.576;8.568;2023-03-19T21:03:27;9.10;99.90
44305;DHT22;30019;50.576;8.568;2023-03-19T21:05:56;9.10;99.90
44305;DHT22;30019;50.576;8.568;2023-03-19T21:08:41;9.00;99.90
44305;DHT22;30019;50.576;8.568;2023-03-19T21:11:18;9.00;99.90
44305;DHT22;30019;50.576;8.568;2023-03-19T21:13:49;9.00;99.90
44305;DHT22;30019;50.576;8.568;2023-03-19T21:16:21;9.00;99.90
44305;DHT22;30019;50.576;8.568;2023-03-19T21:18:47;9.00;99.90
44305;DHT22;30019;50.576;8.568;2023-03-19T21:21:22;9.00;99.90
44305;DHT22;30019;50.576;8.568;2023-03-19T21:24:18;9.00;99.90
44305;DHT22;30019;50.576;8.568;2023-03-19T21:26:45;9.00;99.90
44305;DHT22;30019;50.576;8.568;2023-03-19T21:32:10;9.00;99.90
44305;DHT22;30019;50.576;8.568;2023-03-19T21:34:36;9.00;99.90
44305;DHT22;30019;50.576;8.568;2023-03-19T21:37:01;9.00;99.90